Time;durP1;ratioP1;P1;durP2;ratioP2;P2;SDS_P1;SDS_P2;PMS_P1;PMS_P2;Temp;Humidity;BMP_temperature;BMP_pressure;BME280_temperature;BME280_humidity;BME280_pressure;Samples;Min_cycle;Max_cycle;Signal;HPM_P1;HPM_P2
2024/02/20 00:01:24;;;;;;;7.30;2.95;;;11.20;83.10;;;;;;4787203;29;20030;-93
2024/02/20 00:03:50;;;;;;;7.05;2.60;;;11.20;83.10;;;;;;4775529;29;20504;-84
2024/02/20 00:06:15;;;;;;;9.15;3.00;;;11.20;83.20;;;;;;4789984;29;20039;-95
2024/02/20 00:08:41;;;;;;;6.75;2.67;;;11.20;83.20;;;;;;4774236;29;20269;-84
2024/02/20 00:11:07;;;;;;;6.93;2.67;;;11.20;83.30;;;;;;4770880;29;20117;-80
2024/02/20 00:13:33;;;;;;;6.65;2.70;;;11.10;83.20;;;;;;4773614;29;20038;-94
2024/02/20 00:16:00;;;;;;;6.50;2.72;;;11.10;83.20;;;;;;4774234;29;20034;-95
2024/02/20 00:18:25;;;;;;;7.00;2.63;;;11.10;83.30;;;;;;4778339;29;20071;-92
2024/02/20 00:20:51;;;;;;;7.40;2.40;;;11.10;83.30;;;;;;4805277;29;20092;-84
2024/02/20 00:23:17;;;;;;;7.22;2.67;;;11.10;83.30;;;;;;4785986;29;20032;-93
2024/02/20 00:25:43;;;;;;;5.80;2.75;;;11.10;83.30;;;;;;4788520;29;20035;-94
2024/02/20 00:28:12;;;;;;;6.60;2.60;;;11.00;83.30;;;;;;4798552;29;20110;-81
2024/02/20 00:30:39;;;;;;;7.75;2.65;;;11.00;83.20;;;;;;4770682;30;20031;-93
2024/02/20 00:33:10;;;;;;;7.28;3.20;;;11.00;83.20;;;;;;4794406;29;20113;-85
2024/02/20 00:35:35;;;;;;;6.60;2.72;;;11.00;83.30;;;;;;4777844;29;20039;-94
2024/02/20 00:38:01;;;;;;;6.80;2.67;;;11.00;83.30;;;;;;4780780;29;20092;-94
2024/02/20 00:40:27;;;;;;;8.40;2.88;;;11.00;83.30;;;;;;4773816;29;20492;-94
2024/02/20 00:42:53;;;;;;;4.68;2.33;;;10.90;83.30;;;;;;4769225;29;20032;-94
2024/02/20 00:45:19;;;;;;;9.25;3.10;;;10.90;83.30;;;;;;4791687;29;20077;-93
2024/02/20 00:47:45;;;;;;;7.82;2.83;;;10.90;83.30;;;;;;4788006;29;20030;-93
2024/02/20 00:50:11;;;;;;;7.03;2.70;;;10.90;83.30;;;;;;4797818;29;20026;-85
2024/02/20 00:52:37;;;;;;;6.07;2.58;;;10.90;83.30;;;;;;4790911;29;20056;-93
2024/02/20 00:55:04;;;;;;;7.60;2.90;;;10.90;83.30;;;;;;4807115;29;20027;-94
2024/02/20 00:57:29;;;;;;;7.20;2.85;;;10.90;83.30;;;;;;4772799;29;20046;-95
2024/02/20 00:59:58;;;;;;;6.72;3.03;;;10.80;83.30;;;;;;4775133;29;20059;-95
2024/02/20 01:02:26;;;;;;;6.30;2.70;;;10.80;83.30;;;;;;4771369;29;20045;-94
2024/02/20 01:04:52;;;;;;;6.78;3.17;;;10.80;83.30;;;;;;4770397;29;20039;-96
2024/02/20 01:07:18;;;;;;;7.45;2.88;;;10.80;83.30;;;;;;4775424;29;20050;-96
2024/02/20 01:09:43;;;;;;;8.38;3.00;;;10.80;83.30;;;;;;4771045;29;20035;-96
2024/02/20 01:12:09;;;;;;;6.97;2.75;;;10.80;83.40;;;;;;4771964;29;20023;-93
2024/02/20 01:14:35;;;;;;;8.20;2.90;;;10.80;83.30;;;;;;4804085;29;20062;-84
2024/02/20 01:17:01;;;;;;;8.02;3.05;;;10.70;83.30;;;;;;4784419;29;20522;-85
2024/02/20 01:19:27;;;;;;;7.15;3.17;;;10.70;83.30;;;;;;4771659;29;20035;-95
2024/02/20 01:21:52;;;;;;;7.88;2.92;;;10.70;83.30;;;;;;4775224;29;20042;-85
2024/02/20 01:24:19;;;;;;;5.72;2.72;;;10.70;83.40;;;;;;4795889;29;20027;-82
2024/02/20 01:26:44;;;;;;;10.00;3.50;;;10.70;83.40;;;;;;4772053;30;20114;-81
2024/02/20 01:29:13;;;;;;;6.90;2.90;;;10.60;83.40;;;;;;4786894;29;20038;-85
2024/02/20 01:31:39;;;;;;;7.32;3.10;;;10.60;83.40;;;;;;4777016;29;20027;-85
2024/02/20 01:34:05;;;;;;;6.50;2.70;;;10.60;83.40;;;;;;4779617;29;20052;-96
2024/02/20 01:36:32;;;;;;;7.90;2.95;;;10.60;83.40;;;;;;4778876;29;20091;-85
2024/02/20 01:38:58;;;;;;;7.03;3.28;;;10.60;83.30;;;;;;4788115;29;20409;-94
2024/02/20 01:41:25;;;;;;;6.90;3.00;;;10.60;83.40;;;;;;4772755;29;20102;-95
2024/02/20 01:43:51;;;;;;;6.43;3.15;;;10.60;83.40;;;;;;4776691;29;20073;-85
2024/02/20 01:46:22;;;;;;;8.50;3.15;;;10.50;83.40;;;;;;4784435;29;20070;-85
2024/02/20 01:48:51;;;;;;;9.65;3.10;;;10.50;83.40;;;;;;4775514;29;20031;-93
2024/02/20 01:51:19;;;;;;;6.13;2.92;;;10.50;83.40;;;;;;4771169;29;20426;-94
2024/02/20 01:53:47;;;;;;;7.55;2.95;;;10.50;83.40;;;;;;4775389;29;20039;-96
2024/02/20 01:56:15;;;;;;;7.72;3.20;;;10.50;83.40;;;;;;4776844;29;20045;-81
2024/02/20 01:58:41;;;;;;;6.65;2.70;;;10.50;83.50;;;;;;4792645;29;20058;-82
2024/02/20 02:01:07;;;;;;;5.95;2.90;;;10.50;83.50;;;;;;4780443;29;20117;-96
2024/02/20 02:03:34;;;;;;;7.03;2.85;;;10.40;83.40;;;;;;4781519;29;20088;-94
2024/02/20 02:05:59;;;;;;;7.25;3.55;;;10.50;83.40;;;;;;4774751;29;20038;-93
2024/02/20 02:08:25;;;;;;;7.20;3.17;;;10.40;83.40;;;;;;4793325;29;20102;-96
2024/02/20 02:10:51;;;;;;;6.20;3.10;;;10.40;83.40;;;;;;4789711;29;20035;-85
2024/02/20 02:13:17;;;;;;;8.52;3.35;;;10.40;83.40;;;;;;4803825;29;20034;-95
2024/02/20 02:15:43;;;;;;;9.43;3.20;;;10.40;83.40;;;;;;4778087;29;20037;-85
2024/02/20 02:18:09;;;;;;;8.80;3.28;;;10.40;83.50;;;;;;4786982;29;20027;-95
2024/02/20 02:20:34;;;;;;;8.23;3.13;;;10.40;83.50;;;;;;4774599;29;20035;-94
2024/02/20 02:23:00;;;;;;;7.20;2.97;;;10.30;83.40;;;;;;4789442;29;20101;-82
2024/02/20 02:25:26;;;;;;;8.80;3.25;;;10.40;83.50;;;;;;4772165;29;20030;-82
2024/02/20 02:27:53;;;;;;;6.63;3.03;;;10.30;83.40;;;;;;4771371;29;20509;-81
2024/02/20 02:30:19;;;;;;;10.48;3.42;;;10.30;83.40;;;;;;4773961;29;20492;-85
2024/02/20 02:32:45;;;;;;;7.93;2.70;;;10.40;83.50;;;;;;4784445;29;20050;-94
2024/02/20 02:35:11;;;;;;;6.22;2.97;;;10.30;84.00;;;;;;4790195;29;20057;-82
2024/02/20 02:37:37;;;;;;;8.52;3.42;;;10.30;83.40;;;;;;4788805;29;20046;-93
2024/02/20 02:40:06;;;;;;;5.38;2.80;;;10.30;83.40;;;;;;4787025;29;20031;-93
2024/02/20 02:42:32;;;;;;;7.07;3.13;;;10.30;83.40;;;;;;4775114;29;20027;-96
2024/02/20 02:44:58;;;;;;;6.35;2.97;;;10.30;83.50;;;;;;4782008;29;20034;-83
2024/02/20 02:47:24;;;;;;;6.90;3.30;;;10.30;83.40;;;;;;4772697;29;20051;-92
2024/02/20 02:49:50;;;;;;;8.32;2.80;;;10.30;83.40;;;;;;4779345;29;20032;-96
2024/02/20 02:52:16;;;;;;;7.97;3.33;;;10.30;84.10;;;;;;4772463;30;20023;-84
2024/02/20 02:54:42;;;;;;;8.55;3.35;;;10.20;83.40;;;;;;4776185;29;20042;-95
2024/02/20 02:57:08;;;;;;;8.70;3.05;;;10.20;83.40;;;;;;4773176;29;20038;-95
2024/02/20 02:59:34;;;;;;;7.10;2.75;;;10.20;83.50;;;;;;4776676;29;20041;-81
2024/02/20 03:02:03;;;;;;;5.68;2.80;;;10.20;83.50;;;;;;4785880;29;20022;-93
2024/02/20 03:04:32;;;;;;;7.47;2.70;;;10.20;83.50;;;;;;4774364;29;20160;-96
2024/02/20 03:06:58;;;;;;;8.05;2.72;;;10.20;83.50;;;;;;4786188;29;20069;-82
2024/02/20 03:09:25;;;;;;;6.53;2.70;;;10.20;83.50;;;;;;4793605;29;20042;-81
2024/02/20 03:11:51;;;;;;;7.13;3.05;;;10.20;83.50;;;;;;4789576;29;20031;-94
2024/02/20 03:14:17;;;;;;;8.10;2.70;;;10.20;83.50;;;;;;4776425;29;20037;-81
2024/02/20 03:16:44;;;;;;;7.90;2.92;;;10.20;83.60;;;;;;4771387;29;20039;-95
2024/02/20 03:19:10;;;;;;;8.95;2.80;;;10.20;83.50;;;;;;4788486;29;20030;-84
2024/02/20 03:21:39;;;;;;;5.95;2.50;;;10.20;83.60;;;;;;4776669;29;20042;-95
2024/02/20 03:24:05;;;;;;;5.50;2.95;;;10.10;83.50;;;;;;4780347;29;20180;-81
2024/02/20 03:26:31;;;;;;;7.70;2.78;;;10.10;83.50;;;;;;4777230;29;20035;-93
2024/02/20 03:28:56;;;;;;;6.57;2.80;;;10.10;83.50;;;;;;4793894;29;20106;-82
2024/02/20 03:31:23;;;;;;;7.28;3.20;;;10.10;83.50;;;;;;4781948;29;20023;-95
2024/02/20 03:33:49;;;;;;;7.88;2.88;;;10.10;83.50;;;;;;4781814;29;20054;-84
2024/02/20 03:36:15;;;;;;;6.47;2.90;;;10.10;83.50;;;;;;4790928;29;20093;-81
2024/02/20 03:38:41;;;;;;;7.85;3.13;;;10.10;83.50;;;;;;4773758;30;20023;-94
2024/02/20 03:41:07;;;;;;;7.30;3.00;;;10.10;83.50;;;;;;4792173;29;20129;-84
2024/02/20 03:43:34;;;;;;;5.88;2.55;;;10.10;83.50;;;;;;4800061;29;20489;-84
2024/02/20 03:46:04;;;;;;;7.50;2.88;;;10.10;83.60;;;;;;4792998;29;20529;-92
2024/02/20 03:48:30;;;;;;;6.35;2.78;;;10.10;83.50;;;;;;4793160;29;20365;-93
2024/02/20 03:50:56;;;;;;;6.72;2.88;;;10.10;83.50;;;;;;4795557;29;20429;-81
2024/02/20 03:53:22;;;;;;;4.18;2.33;;;10.00;83.50;;;;;;4792322;29;20135;-95
2024/02/20 03:55:48;;;;;;;8.43;2.97;;;10.00;83.50;;;;;;4793184;29;20062;-84
2024/02/20 03:58:15;;;;;;;6.22;2.40;;;10.00;83.50;;;;;;4773005;29;20050;-84
2024/02/20 04:00:41;;;;;;;8.13;3.10;;;10.00;83.50;;;;;;4776993;29;20511;-81
2024/02/20 04:03:06;;;;;;;5.43;2.70;;;10.00;83.50;;;;;;4785995;29;20043;-81
2024/02/20 04:05:33;;;;;;;5.97;2.75;;;10.00;83.50;;;;;;4775088;29;20077;-84
2024/02/20 04:07:59;;;;;;;7.07;2.92;;;10.00;83.50;;;;;;4804119;29;20066;-95
2024/02/20 04:10:25;;;;;;;5.80;2.78;;;10.00;83.50;;;;;;4788464;29;20041;-84
2024/02/20 04:12:51;;;;;;;5.95;2.92;;;10.00;83.60;;;;;;4789109;29;20070;-81
2024/02/20 04:15:16;;;;;;;4.50;2.50;;;10.00;83.60;;;;;;4791634;29;20038;-95
2024/02/20 04:17:42;;;;;;;5.50;2.72;;;10.00;83.60;;;;;;4778677;29;20050;-81
2024/02/20 04:20:11;;;;;;;8.23;3.20;;;10.00;83.50;;;;;;4793582;29;20026;-96
2024/02/20 04:22:38;;;;;;;7.40;2.80;;;10.00;83.60;;;;;;4769865;29;20044;-84
2024/02/20 04:25:05;;;;;;;5.55;2.58;;;9.90;83.60;;;;;;4789917;29;20072;-84
2024/02/20 04:27:31;;;;;;;7.20;2.78;;;10.00;83.80;;;;;;4790560;29;20055;-82
2024/02/20 04:29:57;;;;;;;6.85;2.80;;;9.90;83.50;;;;;;4781409;29;20066;-93
2024/02/20 04:32:23;;;;;;;5.75;2.80;;;9.90;83.50;;;;;;4779884;29;20039;-93
2024/02/20 04:34:49;;;;;;;4.97;2.63;;;9.90;83.50;;;;;;4773764;29;20055;-81
2024/02/20 04:37:16;;;;;;;7.65;2.78;;;9.90;83.50;;;;;;4772705;29;20062;-81
2024/02/20 04:39:46;;;;;;;5.88;2.67;;;9.90;83.60;;;;;;4774269;29;20049;-94
2024/02/20 04:42:12;;;;;;;5.40;2.67;;;9.90;83.60;;;;;;4782482;29;20516;-95
2024/02/20 04:44:38;;;;;;;6.03;2.78;;;9.90;83.60;;;;;;4771019;29;20034;-94
2024/02/20 04:47:05;;;;;;;4.50;2.60;;;9.90;83.60;;;;;;4773520;29;20045;-84
2024/02/20 04:49:32;;;;;;;5.10;2.63;;;9.90;83.60;;;;;;4769562;29;20096;-84
2024/02/20 04:51:58;;;;;;;6.00;2.47;;;9.90;83.60;;;;;;4803090;29;20038;-82
2024/02/20 04:54:23;;;;;;;4.93;2.38;;;9.90;83.60;;;;;;4803246;29;20117;-81
2024/02/20 04:56:49;;;;;;;5.13;2.30;;;9.90;84.30;;;;;;4773624;29;20065;-96
2024/02/20 04:59:19;;;;;;;6.30;3.05;;;9.90;83.60;;;;;;4774690;29;20030;-95
2024/02/20 05:01:46;;;;;;;6.32;2.65;;;9.80;83.60;;;;;;4773059;29;20031;-81
2024/02/20 05:04:13;;;;;;;5.03;2.60;;;9.80;83.60;;;;;;4789028;29;20034;-81
2024/02/20 05:06:38;;;;;;;6.70;2.75;;;9.80;83.60;;;;;;4775308;29;20038;-96
2024/02/20 05:09:05;;;;;;;4.05;2.67;;;9.80;83.60;;;;;;4766180;29;20084;-82
2024/02/20 05:11:31;;;;;;;6.55;2.53;;;9.80;83.60;;;;;;4771638;29;20555;-96
2024/02/20 05:13:57;;;;;;;5.80;2.45;;;9.80;83.60;;;;;;4773683;29;20039;-94
2024/02/20 05:16:23;;;;;;;5.18;2.60;;;9.80;83.60;;;;;;4786811;29;20034;-95
2024/02/20 05:18:50;;;;;;;4.90;2.95;;;9.80;83.60;;;;;;4776242;29;20041;-82
2024/02/20 05:21:16;;;;;;;6.13;2.60;;;9.80;83.60;;;;;;4785887;29;20069;-93
2024/02/20 05:23:42;;;;;;;8.15;2.80;;;9.80;83.60;;;;;;4790847;29;20396;-96
2024/02/20 05:26:08;;;;;;;5.18;2.60;;;9.80;83.60;;;;;;4787415;29;20031;-92
2024/02/20 05:28:35;;;;;;;7.25;2.70;;;9.80;83.60;;;;;;4771384;29;20020;-94
2024/02/20 05:31:01;;;;;;;7.55;2.60;;;9.80;83.60;;;;;;4828198;24;20088;-96
2024/02/20 05:33:27;;;;;;;6.38;2.72;;;9.80;83.60;;;;;;4790227;29;20110;-84
2024/02/20 05:35:53;;;;;;;4.82;2.97;;;9.80;83.60;;;;;;4829029;29;20050;-85
2024/02/20 05:38:21;;;;;;;5.20;2.50;;;9.80;83.60;;;;;;4791786;29;20034;-81
2024/02/20 05:40:48;;;;;;;5.35;2.63;;;9.80;83.60;;;;;;4789911;29;20203;-96
2024/02/20 05:43:15;;;;;;;5.82;2.88;;;9.70;83.60;;;;;;4808535;29;20037;-94
2024/02/20 05:45:42;;;;;;;6.88;2.88;;;9.80;83.60;;;;;;4805493;29;20125;-94
2024/02/20 05:48:10;;;;;;;9.90;3.10;;;9.70;83.60;;;;;;4792706;29;20038;-85
2024/02/20 05:50:36;;;;;;;6.60;2.58;;;9.70;83.60;;;;;;4813708;29;20030;-93
2024/02/20 05:53:05;;;;;;;6.78;3.00;;;9.70;83.60;;;;;;4806972;29;20041;-84
2024/02/20 05:55:31;;;;;;;5.70;2.97;;;9.70;83.60;;;;;;4804421;29;20372;-92
2024/02/20 05:58:00;;;;;;;6.90;2.90;;;9.70;83.60;;;;;;4791314;29;20034;-96
2024/02/20 06:00:29;;;;;;;4.70;2.60;;;9.70;83.60;;;;;;4803273;29;20050;-81
2024/02/20 06:02:54;;;;;;;7.13;2.70;;;9.70;83.60;;;;;;4789447;29;20026;-81
2024/02/20 06:05:24;;;;;;;5.78;3.00;;;9.70;83.60;;;;;;4805987;29;20035;-83
2024/02/20 06:07:52;;;;;;;6.07;2.88;;;9.70;83.60;;;;;;4826944;29;20066;-95
2024/02/20 06:10:19;;;;;;;6.70;3.03;;;9.70;83.60;;;;;;4821440;29;20522;-82
2024/02/20 06:12:47;;;;;;;5.95;2.75;;;9.70;83.60;;;;;;4794402;29;20078;-96
2024/02/20 06:15:13;;;;;;;7.72;2.97;;;9.70;83.60;;;;;;4790729;29;20475;-84
2024/02/20 06:17:39;;;;;;;6.25;2.88;;;9.70;83.60;;;;;;4810491;29;20038;-96
2024/02/20 06:20:07;;;;;;;6.00;2.92;;;9.70;83.60;;;;;;4824723;24;20057;-84
2024/02/20 06:22:33;;;;;;;4.45;2.70;;;9.70;83.60;;;;;;4801624;29;20595;-96
2024/02/20 06:24:59;;;;;;;6.07;2.83;;;9.70;83.60;;;;;;4854043;24;20147;-96
2024/02/20 06:27:28;;;;;;;8.73;3.08;;;9.70;83.60;;;;;;4821266;29;20130;-83
2024/02/20 06:29:53;;;;;;;7.28;3.40;;;9.70;83.60;;;;;;4810545;29;20570;-83
2024/02/20 06:32:19;;;;;;;7.63;3.08;;;9.70;83.60;;;;;;4813272;29;20073;-81
2024/02/20 06:34:45;;;;;;;5.15;2.78;;;9.70;83.60;;;;;;4806603;29;20038;-83
2024/02/20 06:37:13;;;;;;;8.15;3.53;;;9.70;83.60;;;;;;4806723;29;20042;-92
2024/02/20 06:39:39;;;;;;;6.00;3.15;;;9.70;83.60;;;;;;4803920;29;20033;-81
2024/02/20 06:42:05;;;;;;;6.20;3.10;;;9.70;83.60;;;;;;4793817;29;20027;-92
2024/02/20 06:44:31;;;;;;;5.85;3.00;;;9.70;83.60;;;;;;4810174;29;20041;-96
2024/02/20 06:46:57;;;;;;;7.35;3.53;;;9.70;83.60;;;;;;4817014;29;20046;-96
2024/02/20 06:49:23;;;;;;;6.47;3.30;;;9.70;83.60;;;;;;4810455;29;20645;-83
2024/02/20 06:51:49;;;;;;;5.63;3.28;;;9.70;83.70;;;;;;4789848;29;20512;-83
2024/02/20 06:54:14;;;;;;;6.13;3.50;;;9.70;83.60;;;;;;4799141;29;20059;-93
2024/02/20 06:56:40;;;;;;;6.28;3.45;;;9.70;83.60;;;;;;4821265;29;20035;-93
2024/02/20 06:59:06;;;;;;;5.78;3.10;;;9.70;83.60;;;;;;4817041;29;20035;-85
2024/02/20 07:01:33;;;;;;;6.07;3.28;;;9.60;84.20;;;;;;4808164;29;20031;-94
2024/02/20 07:03:59;;;;;;;6.93;3.40;;;9.70;83.60;;;;;;4828732;29;20201;-94
2024/02/20 07:06:25;;;;;;;5.18;3.00;;;9.70;83.60;;;;;;4794180;29;20125;-85
2024/02/20 07:08:51;;;;;;;5.95;3.55;;;9.70;83.60;;;;;;4817856;29;20153;-85
2024/02/20 07:11:17;;;;;;;6.53;3.58;;;9.70;83.60;;;;;;4818782;29;20868;-86
2024/02/20 07:13:43;;;;;;;6.97;3.20;;;9.60;83.60;;;;;;4822912;29;20046;-96
2024/02/20 07:16:09;;;;;;;7.95;3.42;;;9.70;83.70;;;;;;4811469;29;20502;-92
2024/02/20 07:18:35;;;;;;;6.63;3.35;;;9.60;83.60;;;;;;4810929;29;20118;-85
2024/02/20 07:21:03;;;;;;;5.60;3.58;;;9.60;83.60;;;;;;4823028;29;20105;-93
2024/02/20 07:23:30;;;;;;;6.20;3.55;;;9.60;83.70;;;;;;4824288;29;20152;-84
2024/02/20 07:25:56;;;;;;;6.20;3.88;;;9.60;83.60;;;;;;4811666;29;20043;-86
2024/02/20 07:28:22;;;;;;;6.20;3.35;;;9.60;83.70;;;;;;4795517;29;20126;-88
2024/02/20 07:30:48;;;;;;;6.10;3.70;;;9.60;83.60;;;;;;4796925;29;20310;-93
2024/02/20 07:33:14;;;;;;;6.28;3.72;;;9.60;83.60;;;;;;4833949;29;20110;-85
2024/02/20 07:35:41;;;;;;;5.63;3.35;;;9.60;83.60;;;;;;4809356;29;20046;-96
2024/02/20 07:38:10;;;;;;;6.43;3.63;;;9.60;83.60;;;;;;4825636;29;20026;-93
2024/02/20 07:40:40;;;;;;;6.65;3.60;;;9.60;83.60;;;;;;5179625;24;20051;-82
2024/02/20 07:43:06;;;;;;;6.97;3.55;;;9.60;83.60;;;;;;4799851;29;20046;-93
2024/02/20 07:45:32;;;;;;;6.63;3.60;;;9.60;83.60;;;;;;4785917;29;20053;-83
2024/02/20 07:47:58;;;;;;;5.90;3.20;;;9.60;83.60;;;;;;4807478;29;20034;-85
2024/02/20 07:50:25;;;;;;;5.65;3.40;;;9.60;83.60;;;;;;4949202;24;20580;-95
2024/02/20 07:52:51;;;;;;;7.53;3.97;;;9.60;83.60;;;;;;4886371;24;20159;-83
2024/02/20 07:55:17;;;;;;;5.93;3.60;;;9.60;83.60;;;;;;4822468;29;20042;-84
2024/02/20 07:57:44;;;;;;;5.65;3.20;;;9.60;83.60;;;;;;4825832;24;20059;-82
2024/02/20 08:00:13;;;;;;;6.95;3.40;;;9.70;83.70;;;;;;4791877;29;20074;-93
2024/02/20 08:02:39;;;;;;;4.60;3.20;;;9.70;83.70;;;;;;4778627;29;20026;-83
2024/02/20 08:05:05;;;;;;;7.18;3.47;;;9.60;83.60;;;;;;4913435;24;20069;-82
2024/02/20 08:10:06;;;;;;;6.57;3.58;;;9.70;83.70;;;;;;4775904;29;20075;-82
2024/02/20 08:12:32;;;;;;;6.13;3.78;;;9.70;83.70;;;;;;4765236;30;20042;-93
2024/02/20 08:14:57;;;;;;;7.45;3.90;;;9.70;83.60;;;;;;4765902;29;20495;-82
2024/02/20 08:17:23;;;;;;;5.55;3.78;;;9.70;83.60;;;;;;4760933;30;20066;-83
2024/02/20 08:19:49;;;;;;;5.53;3.22;;;9.70;83.60;;;;;;4770780;29;20477;-82
2024/02/20 08:25:07;;;;;;;5.60;3.63;;;9.70;83.60;;;;;;5363754;24;20121;-84
2024/02/20 08:27:33;;;;;;;4.97;3.25;;;9.70;83.60;;;;;;4782704;29;20027;-84
2024/02/20 08:29:59;;;;;;;6.65;3.30;;;9.70;83.60;;;;;;4802304;29;20035;-84
2024/02/20 08:32:26;;;;;;;6.43;3.50;;;9.70;83.60;;;;;;4888052;24;20144;-84
2024/02/20 08:34:52;;;;;;;7.32;3.80;;;9.80;83.60;;;;;;5179801;24;20097;-84
2024/02/20 08:37:17;;;;;;;6.60;3.70;;;9.70;83.60;;;;;;4819059;29;20034;-92
2024/02/20 08:42:15;;;;;;;5.95;3.38;;;9.80;83.60;;;;;;4790277;29;20393;-92
2024/02/20 08:44:41;;;;;;;5.78;3.30;;;9.80;83.60;;;;;;4792279;29;20387;-94
2024/02/20 08:47:07;;;;;;;5.93;3.17;;;9.80;83.60;;;;;;4926887;24;21233;-82
2024/02/20 08:49:32;;;;;;;6.00;3.22;;;9.80;83.60;;;;;;4776175;30;20511;-93
2024/02/20 08:51:58;;;;;;;5.25;2.95;;;9.80;83.60;;;;;;4760295;29;20027;-84
2024/02/20 08:54:24;;;;;;;5.97;3.33;;;9.80;83.60;;;;;;5165088;24;20530;-84
2024/02/20 08:56:50;;;;;;;4.95;3.45;;;9.90;83.70;;;;;;4808875;29;20027;-94
2024/02/20 08:59:16;;;;;;;5.35;3.15;;;9.90;83.70;;;;;;4819905;29;20030;-82
2024/02/20 09:01:42;;;;;;;5.38;3.20;;;9.90;83.70;;;;;;5012341;24;20516;-82
2024/02/20 09:06:58;;;;;;;5.57;3.38;;;9.90;83.70;;;;;;4841793;24;20093;-92
2024/02/20 09:09:24;;;;;;;5.28;3.00;;;9.90;83.60;;;;;;4794555;29;20034;-91
2024/02/20 09:11:51;;;;;;;6.18;3.50;;;10.00;83.70;;;;;;4793666;29;20099;-82
2024/02/20 09:14:19;;;;;;;5.97;3.10;;;9.90;83.60;;;;;;4794751;29;20063;-92
2024/02/20 09:19:15;;;;;;;5.85;3.40;;;10.00;83.70;;;;;;4901524;24;20082;-82
2024/02/20 09:21:41;;;;;;;5.50;3.70;;;10.00;83.70;;;;;;4825136;29;20110;-82
2024/02/20 09:24:10;;;;;;;6.43;3.72;;;10.00;83.70;;;;;;4837721;29;20037;-93
2024/02/20 09:26:40;;;;;;;7.05;3.72;;;10.00;83.70;;;;;;4839980;29;20066;-95
2024/02/20 09:29:08;;;;;;;7.57;3.40;;;10.10;83.80;;;;;;4834997;29;20029;-84
2024/02/20 09:31:33;;;;;;;5.47;3.55;;;10.10;83.70;;;;;;4838447;29;20042;-96
2024/02/20 09:33:59;;;;;;;5.85;3.45;;;10.10;83.70;;;;;;4847317;29;20486;-94
2024/02/20 09:36:25;;;;;;;6.78;3.45;;;10.10;83.60;;;;;;4837243;29;20034;-95
2024/02/20 09:38:51;;;;;;;4.72;3.15;;;10.10;83.60;;;;;;4840939;29;20047;-92
2024/02/20 09:44:13;;;;;;;4.70;3.05;;;10.20;83.60;;;;;;5246955;24;20072;-82
2024/02/20 09:46:48;;;;;;;6.47;3.13;;;10.20;83.60;;;;;;5305897;24;20079;-82
2024/02/20 09:49:14;;;;;;;7.80;3.85;;;10.30;83.70;;;;;;4816997;24;20058;-82
2024/02/20 09:51:42;;;;;;;5.50;3.50;;;10.20;83.60;;;;;;4807828;29;20030;-93
2024/02/20 09:54:11;;;;;;;7.32;3.90;;;10.30;83.60;;;;;;4806186;29;20034;-84
2024/02/20 09:56:40;;;;;;;6.43;3.30;;;10.30;83.60;;;;;;5169354;24;20049;-84
2024/02/20 09:59:06;;;;;;;6.47;3.60;;;10.30;83.60;;;;;;5134553;24;20118;-82
2024/02/20 10:01:32;;;;;;;8.00;3.95;;;10.40;83.60;;;;;;4824939;29;20487;-82
2024/02/20 10:06:32;;;;;;;7.35;3.83;;;10.40;83.60;;;;;;5477663;24;20117;-95
2024/02/20 10:09:04;;;;;;;7.35;3.67;;;10.40;83.50;;;;;;4835353;29;20034;-94
2024/02/20 10:11:36;;;;;;;6.28;3.60;;;10.40;83.50;;;;;;4838996;29;20026;-83
2024/02/20 10:17:03;;;;;;;7.10;3.83;;;10.40;84.20;;;;;;5190072;24;20089;-84
2024/02/20 10:19:29;;;;;;;6.30;3.58;;;10.50;83.60;;;;;;4786311;29;20046;-82
2024/02/20 10:25:12;;;;;;;8.40;3.53;;;10.60;83.60;;;;;;4783111;29;20113;-91
2024/02/20 10:30:29;;;;;;;6.15;3.47;;;10.60;83.50;;;;;;5511837;24;20496;-84
2024/02/20 10:32:57;;;;;;;7.03;3.50;;;10.60;83.50;;;;;;4956694;24;20026;-84
2024/02/20 10:35:48;;;;;;;7.22;4.00;;;10.60;83.50;;;;;;5303862;24;20022;31
2024/02/20 10:38:18;;;;;;;6.63;4.00;;;10.70;83.50;;;;;;4943021;24;21100;-82
2024/02/20 10:40:44;;;;;;;8.20;4.28;;;10.70;83.50;;;;;;4784289;29;20543;-82
2024/02/20 10:43:12;;;;;;;8.80;4.20;;;10.70;83.40;;;;;;4777283;29;20031;-82
2024/02/20 10:45:41;;;;;;;8.35;4.38;;;10.80;83.50;;;;;;4766038;29;20027;-93
2024/02/20 10:48:10;;;;;;;7.90;3.97;;;10.80;83.40;;;;;;4779825;30;20035;-94
2024/02/20 10:50:40;;;;;;;6.93;4.20;;;10.80;83.40;;;;;;4762523;29;20027;-81
2024/02/20 10:53:07;;;;;;;10.15;4.60;;;10.90;83.50;;;;;;4761677;29;20054;-82
2024/02/20 10:55:33;;;;;;;7.00;4.30;;;10.90;83.40;;;;;;4776059;30;20030;-82
2024/02/20 10:58:03;;;;;;;7.22;4.55;;;10.90;83.40;;;;;;4781542;30;20027;-96
2024/02/20 11:00:31;;;;;;;8.07;4.03;;;10.90;83.30;;;;;;4771910;29;20035;-94
2024/02/20 11:02:58;;;;;;;7.05;4.13;;;10.90;83.30;;;;;;4768906;29;20043;-81
2024/02/20 11:05:26;;;;;;;7.90;4.55;;;11.00;83.30;;;;;;4759331;29;20031;-93
2024/02/20 11:07:52;;;;;;;8.27;4.45;;;11.00;83.30;;;;;;4766497;30;20051;-94
2024/02/20 11:10:20;;;;;;;8.38;4.35;;;11.00;83.20;;;;;;4762105;29;20128;-94
2024/02/20 11:12:47;;;;;;;7.28;4.18;;;11.10;83.30;;;;;;4781173;30;20039;-86
2024/02/20 11:15:19;;;;;;;8.50;5.10;;;11.10;83.20;;;;;;4780491;29;20027;-86
2024/02/20 11:17:46;;;;;;;11.02;4.95;;;11.10;83.10;;;;;;4793409;29;20105;-96
2024/02/20 11:20:17;;;;;;;9.00;4.82;;;11.20;83.20;;;;;;4894731;24;20081;-84
2024/02/20 11:25:21;;;;;;;10.43;5.07;;;11.20;83.10;;;;;;2154624;24;20243;-96
2024/02/20 11:27:48;;;;;;;8.60;4.82;;;11.20;83.20;;;;;;4815420;29;20207;-85
2024/02/20 11:30:19;;;;;;;9.70;5.20;;;11.30;83.10;;;;;;4817653;29;20038;-96
2024/02/20 11:32:47;;;;;;;8.80;4.53;;;11.30;83.10;;;;;;4785951;29;20046;-81
2024/02/20 11:35:33;;;;;;;11.02;4.88;;;11.30;83.00;;;;;;4800360;29;20498;-82
2024/02/20 11:38:04;;;;;;;7.47;4.78;;;11.40;83.10;;;;;;4801540;29;20030;-95
2024/02/20 11:40:34;;;;;;;7.70;5.03;;;11.40;83.00;;;;;;4816168;29;20026;-93
2024/02/20 11:43:04;;;;;;;8.85;4.90;;;11.40;83.00;;;;;;4793662;29;20083;-95
2024/02/20 11:45:34;;;;;;;7.53;5.10;;;11.40;83.00;;;;;;4808381;29;20042;-85
2024/02/20 11:48:08;;;;;;;10.10;5.38;;;11.40;82.90;;;;;;4806601;29;20098;-92
2024/02/20 11:50:37;;;;;;;9.10;5.15;;;11.50;83.60;;;;;;4803476;29;20113;-93
2024/02/20 11:53:02;;;;;;;8.73;5.45;;;11.50;83.00;;;;;;4787347;29;20065;-84
2024/02/20 11:55:29;;;;;;;9.23;5.13;;;11.50;82.90;;;;;;4813160;29;20026;-81
2024/02/20 11:57:56;;;;;;;10.23;4.90;;;11.50;82.90;;;;;;4804488;29;20030;-84
2024/02/20 12:00:24;;;;;;;8.68;5.00;;;11.60;82.90;;;;;;5110814;24;20572;-92
2024/02/20 12:02:51;;;;;;;8.88;4.65;;;11.60;82.90;;;;;;4794245;29;20034;-85
2024/02/20 12:05:27;;;;;;;9.98;4.90;;;11.60;82.90;;;;;;4803997;29;20034;-81
2024/02/20 12:07:56;;;;;;;7.65;4.93;;;11.70;82.90;;;;;;4842743;29;20129;-96
2024/02/20 12:10:25;;;;;;;7.82;5.03;;;11.70;82.80;;;;;;4816770;24;20058;-82
2024/02/20 12:12:52;;;;;;;10.57;5.53;;;11.70;82.80;;;;;;4835342;29;20057;-84
2024/02/20 12:15:18;;;;;;;10.38;5.07;;;11.80;82.80;;;;;;4817845;29;20054;-85
2024/02/20 12:17:45;;;;;;;7.63;4.75;;;11.80;82.70;;;;;;4831153;29;20455;-82
2024/02/20 12:20:13;;;;;;;8.95;5.10;;;11.80;82.70;;;;;;4810305;29;20026;-86
2024/02/20 12:22:43;;;;;;;8.93;5.25;;;11.80;82.70;;;;;;4805795;29;20039;-93
2024/02/20 12:25:10;;;;;;;8.00;5.18;;;11.90;82.70;;;;;;4803002;29;20034;-81
2024/02/20 12:27:37;;;;;;;7.72;5.00;;;11.90;82.70;;;;;;4834148;29;20034;-81
2024/02/20 12:30:04;;;;;;;8.23;5.25;;;11.90;82.60;;;;;;4792182;29;20047;-91
2024/02/20 12:32:30;;;;;;;7.78;4.70;;;11.90;82.60;;;;;;4834877;29;20037;-96
2024/02/20 12:34:56;;;;;;;8.38;4.75;;;12.00;82.60;;;;;;4810396;29;20027;-92
2024/02/20 12:37:23;;;;;;;8.40;5.30;;;12.00;82.50;;;;;;4815951;29;20038;-85
2024/02/20 12:39:49;;;;;;;9.82;5.00;;;12.10;82.50;;;;;;4804441;29;20034;-81
2024/02/20 12:42:17;;;;;;;10.43;5.25;;;12.10;82.50;;;;;;4815686;29;20132;-93
2024/02/20 12:44:47;;;;;;;6.95;4.85;;;12.10;82.50;;;;;;4813937;29;20026;-93
2024/02/20 12:47:14;;;;;;;8.50;4.75;;;12.10;82.50;;;;;;4805595;29;20042;-93
2024/02/20 12:49:40;;;;;;;9.70;5.03;;;12.20;82.40;;;;;;4800208;29;20057;-93
2024/02/20 12:52:07;;;;;;;9.73;4.78;;;12.20;82.40;;;;;;4799148;29;20118;-94
2024/02/20 12:54:34;;;;;;;9.10;5.38;;;12.20;82.40;;;;;;5174014;24;20141;-86
2024/02/20 12:57:00;;;;;;;7.32;4.60;;;12.20;82.30;;;;;;4801478;29;20048;-82
2024/02/20 12:59:30;;;;;;;9.23;5.22;;;12.30;82.30;;;;;;4820716;29;20034;-82
2024/02/20 13:04:54;;;;;;;6.50;3.83;;;12.30;82.30;;;;;;4758118;30;20068;-82
2024/02/20 13:07:20;;;;;;;7.10;4.85;;;12.30;82.20;;;;;;4719934;30;20056;-83
2024/02/20 13:12:44;;;;;;;8.55;4.53;;;12.40;82.10;;;;;;4808384;29;20079;-86
2024/02/20 13:15:10;;;;;;;9.77;4.85;;;12.50;82.10;;;;;;5046208;24;20149;-94
2024/02/20 13:17:38;;;;;;;7.57;5.18;;;12.50;82.00;;;;;;4828796;29;20044;-82
2024/02/20 13:20:05;;;;;;;8.88;4.82;;;12.50;82.00;;;;;;4841786;24;20059;-95
2024/02/20 13:22:31;;;;;;;8.52;4.38;;;12.50;82.00;;;;;;4797765;29;20475;-94
2024/02/20 13:27:47;;;;;;;7.93;4.53;;;12.60;82.00;;;;;;5016430;24;20070;-93